Time,TemperatureF,DewpointF,PressureIn,WindDirection,WindDirectionDegrees,WindSpeedMPH,WindSpeedGustMPH,Humidity,HourlyPrecipIn,Conditions,Clouds,dailyrainin,SoftwareType,DateUTC
2013-03-24 00:00:00,31.3,15.7,29.71,West,270,3.4,6.7,52,0.00,,,0.00,WUHU216HW,2013-03-24 04:00:00,
2013-03-24 00:05:00,31.3,15.7,29.71,West,270,4.7,7.2,52,0.00,,,0.00,WUHU216HW,2013-03-24 04:05:00,
2013-03-24 00:10:00,31.7,16.0,29.71,WNW,293,4.9,7.2,52,0.00,,,0.00,WUHU216HW,2013-03-24 04:10:00,
2013-03-24 00:15:00,31.9,16.2,29.71,WNW,293,4.3,4.9,52,0.00,,,0.00,WUHU216HW,2013-03-24 04:15:00,
2013-03-24 00:20:00,32.0,16.4,29.71,WSW,248,4.5,7.4,52,0.00,,,0.00,WUHU216HW,2013-03-24 04:20:00,
2013-03-24 00:25:00,32.2,16.9,29.70,SW,225,4.0,8.5,53,0.00,,,0.00,WUHU216HW,2013-03-24 04:25:00,
2013-03-24 00:30:00,32.4,17.1,29.70,West,270,5.8,8.5,53,0.00,,,0.00,WUHU216HW,2013-03-24 04:30:00,
2013-03-24 00:35:00,32.6,17.3,29.70,NNW,338,10.5,10.5,53,0.00,,,0.00,WUHU216HW,2013-03-24 04:35:00,
2013-03-24 00:40:00,32.8,17.5,29.70,West,270,4.5,10.5,53,0.00,,,0.00,WUHU216HW,2013-03-24 04:40:00,
2013-03-24 00:45:00,32.8,17.5,29.70,West,270,6.5,11.0,53,0.00,,,0.00,WUHU216HW,2013-03-24 04:45:00,
2013-03-24 00:50:00,32.8,17.5,29.70,NW,315,4.3,11.0,53,0.00,,,0.00,WUHU216HW,2013-03-24 04:50:00,
2013-03-24 00:55:00,32.9,17.6,29.70,WNW,293,5.4,8.7,53,0.00,,,0.00,WUHU216HW,2013-03-24 04:55:00,
2013-03-24 01:00:00,32.8,17.5,29.70,WNW,293,5.6,8.7,53,0.00,,,0.00,WUHU216HW,2013-03-24 05:00:00,
2013-03-24 01:05:00,32.8,17.5,29.70,WNW,293,4.0,7.8,53,0.00,,,0.00,WUHU216HW,2013-03-24 05:05:00,
2013-03-24 01:10:00,32.8,17.5,29.70,West,270,5.1,7.8,53,0.00,,,0.00,WUHU216HW,2013-03-24 05:10:00,
2013-03-24 01:15:00,32.8,17.5,29.70,WNW,293,5.1,7.6,53,0.00,,,0.00,WUHU216HW,2013-03-24 05:15:00,
2013-03-24 01:20:00,32.9,17.6,29.70,West,270,3.8,8.7,53,0.00,,,0.00,WUHU216HW,2013-03-24 05:20:00,
2013-03-24 01:25:00,32.8,17.5,29.70,WNW,293,5.4,8.7,53,0.00,,,0.00,WUHU216HW,2013-03-24 05:25:00,
2013-03-24 01:30:00,32.8,17.5,29.70,WSW,248,14.8,14.8,53,0.00,,,0.00,WUHU216HW,2013-03-24 05:30:00,
2013-03-24 01:35:00,32.9,17.6,29.70,NNW,338,5.6,14.8,53,0.00,,,0.00,WUHU216HW,2013-03-24 05:35:00,
2013-03-24 01:40:00,32.9,17.6,29.70,WSW,248,8.3,14.8,53,0.00,,,0.00,WUHU216HW,2013-03-24 05:40:00,
2013-03-24 01:45:00,32.9,17.6,29.70,West,270,4.5,10.3,53,0.00,,,0.00,WUHU216HW,2013-03-24 05:45:00,
2013-03-24 01:50:00,33.1,17.7,29.70,WNW,293,14.8,14.8,53,0.00,,,0.00,WUHU216HW,2013-03-24 05:50:00,
2013-03-24 01:55:00,33.1,17.7,29.70,WNW,293,12.1,14.8,53,0.00,,,0.00,WUHU216HW,2013-03-24 05:55:00,
2013-03-24 02:00:00,33.1,17.7,29.70,West,270,4.5,14.8,53,0.00,,,0.00,WUHU216HW,2013-03-24 06:00:00,
2013-03-24 02:05:00,32.9,17.6,29.70,West,270,7.6,13.4,53,0.00,,,0.00,WUHU216HW,2013-03-24 06:05:00,
2013-03-24 02:10:00,32.9,17.6,29.70,West,270,2.5,9.6,53,0.00,,,0.00,WUHU216HW,2013-03-24 06:10:00,
2013-03-24 02:15:00,32.8,17.5,29.70,WNW,293,8.1,9.8,53,0.00,,,0.00,WUHU216HW,2013-03-24 06:15:00,
2013-03-24 02:20:00,32.8,17.0,29.70,WNW,293,10.5,10.5,52,0.00,,,0.00,WUHU216HW,2013-03-24 06:20:00,
2013-03-24 02:25:00,32.9,17.2,29.70,West,270,5.8,10.5,52,0.00,,,0.00,WUHU216HW,2013-03-24 06:25:00,
2013-03-24 02:30:00,32.9,17.2,29.70,NW,315,3.1,12.8,52,0.00,,,0.00,WUHU216HW,2013-03-24 06:30:00,
2013-03-24 02:35:00,33.1,17.3,29.70,WNW,293,5.6,15.9,52,0.00,,,0.00,WUHU216HW,2013-03-24 06:35:00,
2013-03-24 02:40:00,33.1,17.3,29.70,NNW,338,2.7,15.9,52,0.00,,,0.00,WUHU216HW,2013-03-24 06:40:00,
2013-03-24 02:45:00,32.9,17.2,29.70,NW,315,2.2,7.8,52,0.00,,,0.00,WUHU216HW,2013-03-24 06:45:00,
2013-03-24 02:50:00,32.8,17.0,29.70,WSW,248,2.0,9.4,52,0.00,,,0.00,WUHU216HW,2013-03-24 06:50:00,
2013-03-24 02:55:00,32.8,16.6,29.70,NW,315,5.4,9.4,51,0.00,,,0.00,WUHU216HW,2013-03-24 06:55:00,
2013-03-24 03:00:00,32.8,17.0,29.70,West,270,6.7,15.2,52,0.00,,,0.00,WUHU216HW,2013-03-24 07:00:00,
2013-03-24 03:05:00,32.8,17.0,29.70,West,270,3.6,15.2,52,0.00,,,0.00,WUHU216HW,2013-03-24 07:05:00,
2013-03-24 03:10:00,32.8,17.0,29.70,West,270,7.2,13.9,52,0.00,,,0.00,WUHU216HW,2013-03-24 07:10:00,
2013-03-24 03:15:00,32.8,17.0,29.71,WNW,293,4.0,9.8,52,0.00,,,0.00,WUHU216HW,2013-03-24 07:15:00,
2013-03-24 03:20:00,32.6,16.4,29.71,WNW,293,8.3,9.8,51,0.00,,,0.00,WUHU216HW,2013-03-24 07:20:00,
2013-03-24 03:25:00,32.6,16.8,29.70,WNW,293,6.9,9.8,52,0.00,,,0.00,WUHU216HW,2013-03-24 07:25:00,
2013-03-24 03:30:00,32.4,16.2,29.70,NW,315,4.9,9.2,51,0.00,,,0.00,WUHU216HW,2013-03-24 07:30:00,
2013-03-24 03:35:00,32.2,15.7,29.70,West,270,4.7,9.2,50,0.00,,,0.00,WUHU216HW,2013-03-24 07:35:00,
2013-03-24 03:40:00,32.2,16.1,29.70,NW,315,2.5,7.6,51,0.00,,,0.00,WUHU216HW,2013-03-24 07:40:00,
2013-03-24 03:45:00,32.2,16.1,29.70,WSW,248,1.1,7.4,51,0.00,,,0.00,WUHU216HW,2013-03-24 07:45:00,
2013-03-24 03:50:00,32.0,16.4,29.70,SW,225,0.4,4.9,52,0.00,,,0.00,WUHU216HW,2013-03-24 07:50:00,
2013-03-24 03:55:00,31.7,16.0,29.70,SSW,203,1.8,2.5,52,0.00,,,0.00,WUHU216HW,2013-03-24 07:55:00,
2013-03-24 04:00:00,31.3,15.3,29.70,NW,315,3.1,3.4,51,0.00,,,0.00,WUHU216HW,2013-03-24 08:00:00,
2013-03-24 04:05:00,31.1,15.1,29.69,WNW,293,4.5,4.5,51,0.00,,,0.00,WUHU216HW,2013-03-24 08:05:00,
2013-03-24 04:10:00,31.0,15.0,29.70,West,270,1.1,4.5,51,0.00,,,0.00,WUHU216HW,2013-03-24 08:10:00,
2013-03-24 04:15:00,30.8,14.3,29.70,West,270,2.9,4.5,50,0.00,,,0.00,WUHU216HW,2013-03-24 08:15:00,
2013-03-24 04:19:00,30.4,13.5,29.70,West,270,2.0,5.1,49,0.00,,,0.00,WUHU216HW,2013-03-24 08:19:00,
2013-03-24 04:24:00,30.2,12.9,29.70,WNW,293,1.6,6.3,48,0.00,,,0.00,WUHU216HW,2013-03-24 08:24:00,
2013-03-24 04:30:00,30.4,12.5,29.70,NW,315,4.7,6.3,47,0.00,,,0.00,WUHU216HW,2013-03-24 08:30:00,
2013-03-24 04:35:00,30.6,12.2,29.70,West,270,2.0,5.8,46,0.00,,,0.00,WUHU216HW,2013-03-24 08:35:00,
2013-03-24 04:39:00,30.6,12.7,29.70,WSW,248,5.4,8.3,47,0.00,,,0.00,WUHU216HW,2013-03-24 08:39:00,
2013-03-24 04:44:00,30.8,12.9,29.70,WNW,293,2.5,8.3,47,0.00,,,0.00,WUHU216HW,2013-03-24 08:44:00,
2013-03-24 04:49:00,30.8,12.3,29.70,West,270,2.7,5.4,46,0.00,,,0.00,WUHU216HW,2013-03-24 08:49:00,
2013-03-24 04:54:00,30.6,12.7,29.70,West,270,2.5,6.9,47,0.00,,,0.00,WUHU216HW,2013-03-24 08:54:00,
2013-03-24 04:59:00,30.6,12.2,29.70,WNW,293,2.7,6.9,46,0.00,,,0.00,WUHU216HW,2013-03-24 08:59:00,
2013-03-24 05:04:00,30.6,11.2,29.70,NW,315,4.0,6.5,44,0.00,,,0.00,WUHU216HW,2013-03-24 09:04:00,
2013-03-24 05:09:00,30.6,10.6,29.70,WNW,293,3.1,6.3,43,0.00,,,0.00,WUHU216HW,2013-03-24 09:09:00,
2013-03-24 05:14:00,30.4,10.5,29.70,West,270,2.5,6.9,43,0.00,,,0.00,WUHU216HW,2013-03-24 09:14:00,
2013-03-24 05:19:00,30.4,11.0,29.70,WNW,293,5.4,6.9,44,0.00,,,0.00,WUHU216HW,2013-03-24 09:19:00,
2013-03-24 05:24:00,30.4,10.0,29.70,NW,315,4.7,6.0,42,0.00,,,0.00,WUHU216HW,2013-03-24 09:24:00,
2013-03-24 05:29:00,30.2,10.8,29.70,West,270,6.7,6.7,44,0.00,,,0.00,WUHU216HW,2013-03-24 09:29:00,
2013-03-24 05:34:00,30.2,9.8,29.70,WNW,293,2.9,6.9,42,0.00,,,0.00,WUHU216HW,2013-03-24 09:34:00,
2013-03-24 05:39:00,30.4,10.5,29.71,SSW,203,4.0,6.9,43,0.00,,,0.00,WUHU216HW,2013-03-24 09:39:00,
2013-03-24 05:44:00,30.2,10.4,29.71,NNW,338,2.5,6.5,43,0.00,,,0.00,WUHU216HW,2013-03-24 09:44:00,
2013-03-24 05:49:00,30.2,8.8,29.72,WNW,293,9.4,9.4,40,0.00,,,0.00,WUHU216HW,2013-03-24 09:49:00,
2013-03-24 05:54:00,30.2,10.4,29.72,WSW,248,4.0,9.4,43,0.00,,,0.00,WUHU216HW,2013-03-24 09:54:00,
2013-03-24 05:59:00,30.1,9.6,29.72,WSW,248,2.9,9.4,42,0.00,,,0.00,WUHU216HW,2013-03-24 09:59:00,
2013-03-24 06:04:00,29.9,10.0,29.72,WNW,293,4.7,5.8,43,0.00,,,0.00,WUHU216HW,2013-03-24 10:04:00,
2013-03-24 06:09:00,29.9,9.0,29.72,WNW,293,7.2,7.2,41,0.00,,,0.00,WUHU216HW,2013-03-24 10:09:00,
2013-03-24 06:14:00,30.1,9.2,29.72,NW,315,5.4,7.2,41,0.00,,,0.00,WUHU216HW,2013-03-24 10:14:00,
2013-03-24 06:19:00,30.1,9.6,29.72,NW,315,6.0,7.2,42,0.00,,,0.00,WUHU216HW,2013-03-24 10:19:00,
2013-03-24 06:24:00,29.9,9.0,29.72,West,270,3.1,6.7,41,0.00,,,0.00,WUHU216HW,2013-03-24 10:24:00,
2013-03-24 06:29:00,30.1,9.2,29.72,WNW,293,4.9,7.6,41,0.00,,,0.00,WUHU216HW,2013-03-24 10:29:00,
2013-03-24 06:34:00,30.1,9.2,29.72,WNW,293,4.3,7.6,41,0.00,,,0.00,WUHU216HW,2013-03-24 10:34:00,
2013-03-24 06:39:00,30.1,9.2,29.73,WSW,248,2.5,6.3,41,0.00,,,0.00,WUHU216HW,2013-03-24 10:39:00,
2013-03-24 06:44:00,30.2,9.4,29.73,WNW,293,3.6,7.2,41,0.00,,,0.00,WUHU216HW,2013-03-24 10:44:00,
2013-03-24 06:49:00,30.1,9.2,29.73,SW,225,4.0,7.2,41,0.00,,,0.00,WUHU216HW,2013-03-24 10:49:00,
2013-03-24 06:54:00,30.1,8.6,29.74,SW,225,2.7,6.7,40,0.00,,,0.00,WUHU216HW,2013-03-24 10:54:00,
2013-03-24 06:59:00,30.1,9.2,29.74,SW,225,2.0,6.0,41,0.00,,,0.00,WUHU216HW,2013-03-24 10:59:00,
2013-03-24 07:04:00,30.4,9.5,29.74,West,270,5.4,5.8,41,0.00,,,0.00,WUHU216HW,2013-03-24 11:04:00,
2013-03-24 07:09:00,30.8,9.8,29.75,WSW,248,3.1,5.8,41,0.00,,,0.00,WUHU216HW,2013-03-24 11:09:00,
2013-03-24 07:14:00,31.7,11.2,29.75,NNW,338,2.5,7.4,42,0.00,,,0.00,WUHU216HW,2013-03-24 11:14:00,
2013-03-24 07:19:00,32.0,11.4,29.76,West,270,4.5,8.1,42,0.00,,,0.00,WUHU216HW,2013-03-24 11:19:00,
2013-03-24 07:24:00,32.4,12.2,29.76,WNW,293,4.7,8.1,43,0.00,,,0.00,WUHU216HW,2013-03-24 11:24:00,
2013-03-24 07:29:00,32.8,13.2,29.76,WNW,293,3.4,7.4,44,0.00,,,0.00,WUHU216HW,2013-03-24 11:29:00,
2013-03-24 07:34:00,33.1,14.0,29.76,WSW,248,6.0,7.4,45,0.00,,,0.00,WUHU216HW,2013-03-24 11:34:00,
2013-03-24 07:39:00,33.7,15.0,29.75,WNW,293,8.9,8.9,46,0.00,,,0.00,WUHU216HW,2013-03-24 11:39:00,
2013-03-24 07:44:00,34.2,15.4,29.76,WNW,293,4.0,10.3,46,0.00,,,0.00,WUHU216HW,2013-03-24 11:44:00,
2013-03-24 07:49:00,34.2,16.5,29.76,NNW,338,6.9,10.3,48,0.00,,,0.00,WUHU216HW,2013-03-24 11:49:00,
2013-03-24 07:54:00,34.2,16.5,29.76,West,270,4.0,9.6,48,0.00,,,0.00,WUHU216HW,2013-03-24 11:54:00,
2013-03-24 07:59:00,34.9,17.2,29.75,WSW,248,6.9,8.9,48,0.00,,,0.00,WUHU216HW,2013-03-24 11:59:00,
2013-03-24 08:04:00,35.3,18.5,29.76,NW,315,12.1,12.1,50,0.00,,,0.00,WUHU216HW,2013-03-24 12:04:00,
2013-03-24 08:09:00,34.9,17.6,29.76,NW,315,6.3,12.1,49,0.00,,,0.00,WUHU216HW,2013-03-24 12:09:00,
2013-03-24 08:14:00,35.3,18.5,29.76,NNW,338,6.7,13.4,50,0.00,,,0.00,WUHU216HW,2013-03-24 12:14:00,
2013-03-24 08:19:00,35.8,18.5,29.76,NNW,338,2.7,13.4,49,0.00,,,0.00,WUHU216HW,2013-03-24 12:19:00,
2013-03-24 08:24:00,36.5,19.7,29.77,North,0,1.8,11.2,50,0.00,,,0.00,WUHU216HW,2013-03-24 12:24:00,
2013-03-24 08:29:00,37.1,20.6,29.77,NW,315,5.1,17.2,51,0.00,,,0.00,WUHU216HW,2013-03-24 12:29:00,
2013-03-24 08:34:00,37.4,21.4,29.77,West,270,3.8,17.2,52,0.00,,,0.00,WUHU216HW,2013-03-24 12:34:00,
2013-03-24 08:39:00,37.8,21.2,29.77,SW,225,7.6,13.4,51,0.00,,,0.00,WUHU216HW,2013-03-24 12:39:00,
2013-03-24 08:44:00,38.2,21.6,29.77,WNW,293,7.4,11.2,51,0.00,,,0.00,WUHU216HW,2013-03-24 12:44:00,
2013-03-24 08:49:00,38.5,22.0,29.77,NNW,338,6.0,10.5,51,0.00,,,0.00,WUHU216HW,2013-03-24 12:49:00,
2013-03-24 08:54:00,38.7,22.5,29.76,WNW,293,14.3,14.3,52,0.00,,,0.00,WUHU216HW,2013-03-24 12:54:00,
2013-03-24 08:59:00,39.1,22.4,29.77,WNW,293,9.6,16.8,51,0.00,,,0.00,WUHU216HW,2013-03-24 12:59:00,
2013-03-24 09:04:00,39.2,22.6,29.77,WNW,293,11.2,16.8,51,0.00,,,0.00,WUHU216HW,2013-03-24 13:04:00,
2013-03-24 09:09:00,39.2,22.6,29.77,NNW,338,9.2,11.2,51,0.00,,,0.00,WUHU216HW,2013-03-24 13:09:00,
2013-03-24 09:14:00,39.2,23.1,29.77,NW,315,9.4,12.8,52,0.00,,,0.00,WUHU216HW,2013-03-24 13:14:00,
2013-03-24 09:19:00,39.1,22.9,29.77,NW,315,7.6,12.8,52,0.00,,,0.00,WUHU216HW,2013-03-24 13:19:00,
2013-03-24 09:24:00,39.2,22.6,29.77,WNW,293,6.5,11.4,51,0.00,,,0.00,WUHU216HW,2013-03-24 13:24:00,
2013-03-24 09:29:00,39.2,22.6,29.77,WNW,293,9.2,12.5,51,0.00,,,0.00,WUHU216HW,2013-03-24 13:29:00,
2013-03-24 09:34:00,39.6,23.3,29.76,WSW,248,4.0,12.5,52,0.00,,,0.00,WUHU216HW,2013-03-24 13:34:00,
2013-03-24 09:39:00,40.1,23.4,29.76,WNW,293,8.5,12.8,51,0.00,,,0.00,WUHU216HW,2013-03-24 13:39:00,
2013-03-24 09:44:00,40.7,23.9,29.76,WNW,293,9.4,12.8,51,0.00,,,0.00,WUHU216HW,2013-03-24 13:44:00,
2013-03-24 09:49:00,41.0,23.8,29.76,NW,315,8.1,15.7,50,0.00,,,0.00,WUHU216HW,2013-03-24 13:49:00,
2013-03-24 09:54:00,41.0,23.2,29.75,NW,315,11.0,15.7,49,0.00,,,0.00,WUHU216HW,2013-03-24 13:54:00,
2013-03-24 09:59:00,41.2,23.4,29.75,WNW,293,13.4,15.7,49,0.00,,,0.00,WUHU216HW,2013-03-24 13:59:00,
2013-03-24 10:04:00,41.0,23.2,29.75,NNW,338,4.9,23.7,49,0.00,,,0.00,WUHU216HW,2013-03-24 14:04:00,
2013-03-24 10:09:00,40.9,23.0,29.75,WNW,293,5.6,23.7,49,0.00,,,0.00,WUHU216HW,2013-03-24 14:09:00,
2013-03-24 10:14:00,41.4,23.6,29.75,NW,315,8.5,17.4,49,0.00,,,0.00,WUHU216HW,2013-03-24 14:14:00,
2013-03-24 10:19:00,41.6,23.8,29.75,NW,315,13.2,17.4,49,0.00,,,0.00,WUHU216HW,2013-03-24 14:19:00,
2013-03-24 10:24:00,42.1,24.3,29.76,NNW,338,9.6,15.0,49,0.00,,,0.00,WUHU216HW,2013-03-24 14:24:00,
2013-03-24 10:29:00,42.1,23.8,29.75,NW,315,12.1,15.0,48,0.00,,,0.00,WUHU216HW,2013-03-24 14:29:00,
2013-03-24 10:34:00,42.1,23.8,29.74,West,270,13.2,13.4,48,0.00,,,0.00,WUHU216HW,2013-03-24 14:34:00,
2013-03-24 10:39:00,42.3,23.4,29.74,WNW,293,4.9,13.4,47,0.00,,,0.00,WUHU216HW,2013-03-24 14:39:00,
2013-03-24 10:44:00,42.3,23.4,29.74,WSW,248,6.9,13.4,47,0.00,,,0.00,WUHU216HW,2013-03-24 14:44:00,
2013-03-24 10:49:00,42.5,23.6,29.74,NNW,338,7.6,12.1,47,0.00,,,0.00,WUHU216HW,2013-03-24 14:49:00,
2013-03-24 10:54:00,42.8,23.9,29.74,WNW,293,11.0,14.3,47,0.00,,,0.00,WUHU216HW,2013-03-24 14:54:00,
2013-03-24 10:59:00,43.4,24.4,29.75,NW,315,6.0,14.3,47,0.00,,,0.00,WUHU216HW,2013-03-24 14:59:00,
2013-03-24 11:04:00,43.6,24.0,29.75,West,270,8.3,11.0,46,0.00,,,0.00,WUHU216HW,2013-03-24 15:04:00,
2013-03-24 11:09:00,43.4,24.4,29.75,WNW,293,4.9,9.8,47,0.00,,,0.00,WUHU216HW,2013-03-24 15:09:00,
2013-03-24 11:14:00,43.6,24.0,29.74,WSW,248,11.2,11.2,46,0.00,,,0.00,WUHU216HW,2013-03-24 15:14:00,
2013-03-24 11:19:00,43.4,23.9,29.75,NW,315,4.0,11.2,46,0.00,,,0.00,WUHU216HW,2013-03-24 15:19:00,
2013-03-24 11:24:00,43.6,23.5,29.75,North,0,4.7,11.2,45,0.00,,,0.00,WUHU216HW,2013-03-24 15:24:00,
2013-03-24 11:29:00,43.9,24.4,29.75,SW,225,3.1,8.3,46,0.00,,,0.00,WUHU216HW,2013-03-24 15:29:00,
2013-03-24 11:34:00,44.3,24.7,29.76,North,0,10.1,10.1,46,0.00,,,0.00,WUHU216HW,2013-03-24 15:34:00,
2013-03-24 11:39:00,44.3,24.1,29.75,WSW,248,2.5,10.1,45,0.00,,,0.00,WUHU216HW,2013-03-24 15:39:00,
2013-03-24 11:44:00,44.5,24.3,29.75,WNW,293,3.8,10.1,45,0.00,,,0.00,WUHU216HW,2013-03-24 15:44:00,
2013-03-24 11:49:00,44.8,24.1,29.76,NW,315,8.3,10.7,44,0.00,,,0.00,WUHU216HW,2013-03-24 15:49:00,
2013-03-24 11:54:00,45.0,24.3,29.76,NNW,338,5.8,13.6,44,0.00,,,0.00,WUHU216HW,2013-03-24 15:54:00,
2013-03-24 11:59:00,45.0,24.3,29.76,NW,315,7.6,13.6,44,0.00,,,0.00,WUHU216HW,2013-03-24 15:59:00,
2013-03-24 12:04:00,45.0,24.3,29.75,NW,315,9.2,11.2,44,0.00,,,0.00,WUHU216HW,2013-03-24 16:04:00,
2013-03-24 12:09:00,45.7,24.9,29.76,WNW,293,5.1,9.2,44,0.00,,,0.00,WUHU216HW,2013-03-24 16:09:00,
2013-03-24 12:14:00,46.1,24.7,29.75,WNW,293,4.7,9.2,43,0.00,,,0.00,WUHU216HW,2013-03-24 16:14:00,
2013-03-24 12:19:00,46.1,24.7,29.75,NNW,338,2.5,9.8,43,0.00,,,0.00,WUHU216HW,2013-03-24 16:19:00,
2013-03-24 12:24:00,46.1,24.7,29.75,NW,315,4.7,9.8,43,0.00,,,0.00,WUHU216HW,2013-03-24 16:24:00,
2013-03-24 12:29:00,46.1,24.1,29.75,West,270,9.8,10.1,42,0.00,,,0.00,WUHU216HW,2013-03-24 16:29:00,
2013-03-24 12:34:00,45.7,23.9,29.76,NNW,338,7.8,14.3,42,0.00,,,0.00,WUHU216HW,2013-03-24 16:34:00,
2013-03-24 12:39:00,45.7,23.9,29.75,North,0,2.0,14.3,42,0.00,,,0.00,WUHU216HW,2013-03-24 16:39:00,
2013-03-24 12:44:00,45.7,24.4,29.75,NW,315,5.4,7.8,43,0.00,,,0.00,WUHU216HW,2013-03-24 16:44:00,
2013-03-24 12:49:00,46.1,24.7,29.75,WNW,293,6.7,10.3,43,0.00,,,0.00,WUHU216HW,2013-03-24 16:49:00,
2013-03-24 12:54:00,46.6,24.7,29.75,West,270,8.5,10.3,42,0.00,,,0.00,WUHU216HW,2013-03-24 16:54:00,
2013-03-24 12:59:00,46.4,24.5,29.76,NW,315,7.8,9.8,42,0.00,,,0.00,WUHU216HW,2013-03-24 16:59:00,
2013-03-24 13:04:00,45.7,23.9,29.76,WNW,293,5.8,9.8,42,0.00,,,0.00,WUHU216HW,2013-03-24 17:04:00,
2013-03-24 13:09:00,45.0,23.8,29.76,NW,315,8.1,9.8,43,0.00,,,0.00,WUHU216HW,2013-03-24 17:09:00,
2013-03-24 13:14:00,45.0,23.8,29.75,WNW,293,4.9,9.4,43,0.00,,,0.00,WUHU216HW,2013-03-24 17:14:00,
2013-03-24 13:19:00,45.9,24.6,29.75,NW,315,8.9,8.9,43,0.00,,,0.00,WUHU216HW,2013-03-24 17:19:00,
2013-03-24 13:24:00,46.3,24.8,29.74,NW,315,3.6,8.9,43,0.00,,,0.00,WUHU216HW,2013-03-24 17:24:00,
2013-03-24 13:29:00,46.8,24.9,29.73,NNW,338,12.1,12.1,42,0.00,,,0.00,WUHU216HW,2013-03-24 17:29:00,
2013-03-24 13:34:00,46.8,23.8,29.74,NW,315,5.6,12.1,40,0.00,,,0.00,WUHU216HW,2013-03-24 17:34:00,
2013-03-24 13:39:00,46.8,24.3,29.73,West,270,9.2,11.2,41,0.00,,,0.00,WUHU216HW,2013-03-24 17:39:00,
2013-03-24 13:44:00,46.8,24.9,29.73,SW,225,6.9,9.2,42,0.00,,,0.00,WUHU216HW,2013-03-24 17:44:00,
2013-03-24 13:49:00,47.9,25.2,29.74,NW,315,6.3,6.9,41,0.00,,,0.00,WUHU216HW,2013-03-24 17:49:00,
2013-03-24 13:54:00,47.3,23.6,29.73,West,270,4.5,6.9,39,0.00,,,0.00,WUHU216HW,2013-03-24 17:54:00,
2013-03-24 13:59:00,46.3,23.8,29.74,West,270,10.5,10.5,41,0.00,,,0.00,WUHU216HW,2013-03-24 17:59:00,
2013-03-24 14:04:00,45.5,23.7,29.74,NW,315,10.5,11.4,42,0.00,,,0.00,WUHU216HW,2013-03-24 18:04:00,
2013-03-24 14:09:00,45.2,23.3,29.74,WNW,293,8.9,11.4,42,0.00,,,0.00,WUHU216HW,2013-03-24 18:09:00,
2013-03-24 14:14:00,45.4,24.0,29.74,NW,315,5.8,10.5,43,0.00,,,0.00,WUHU216HW,2013-03-24 18:14:00,
2013-03-24 14:19:00,45.2,23.3,29.74,WSW,248,4.7,8.9,42,0.00,,,0.00,WUHU216HW,2013-03-24 18:19:00,
2013-03-24 14:24:00,45.0,23.8,29.74,WNW,293,4.7,8.5,43,0.00,,,0.00,WUHU216HW,2013-03-24 18:24:00,
2013-03-24 14:29:00,45.7,24.4,29.73,WNW,293,9.2,9.2,43,0.00,,,0.00,WUHU216HW,2013-03-24 18:29:00,
2013-03-24 14:34:00,46.3,23.8,29.73,North,0,4.7,10.1,41,0.00,,,0.00,WUHU216HW,2013-03-24 18:34:00,
2013-03-24 14:39:00,46.1,24.1,29.74,NW,315,7.4,10.1,42,0.00,,,0.00,WUHU216HW,2013-03-24 18:39:00,
2013-03-24 14:44:00,46.4,23.9,29.74,West,270,10.3,10.3,41,0.00,,,0.00,WUHU216HW,2013-03-24 18:44:00,
2013-03-24 14:49:00,46.1,24.1,29.74,NW,315,6.9,10.3,42,0.00,,,0.00,WUHU216HW,2013-03-24 18:49:00,
2013-03-24 14:54:00,46.3,24.3,29.73,WNW,293,7.2,10.3,42,0.00,,,0.00,WUHU216HW,2013-03-24 18:54:00,
2013-03-24 14:59:00,45.9,24.0,29.73,NNW,338,5.1,9.6,42,0.00,,,0.00,WUHU216HW,2013-03-24 18:59:00,
2013-03-24 15:04:00,45.9,24.6,29.72,NW,315,6.0,7.2,43,0.00,,,0.00,WUHU216HW,2013-03-24 19:04:00,
2013-03-24 15:09:00,46.6,25.2,29.72,WNW,293,7.4,10.3,43,0.00,,,0.00,WUHU216HW,2013-03-24 19:09:00,
2013-03-24 15:14:00,47.0,24.4,29.72,North,0,5.6,10.3,41,0.00,,,0.00,WUHU216HW,2013-03-24 19:14:00,
2013-03-24 15:19:00,47.2,24.6,29.72,North,0,8.1,9.8,41,0.00,,,0.00,WUHU216HW,2013-03-24 19:19:00,
2013-03-24 15:24:00,47.3,24.8,29.72,NW,315,8.1,12.8,41,0.00,,,0.00,WUHU216HW,2013-03-24 19:24:00,
2013-03-24 15:29:00,47.5,24.9,29.72,WNW,293,4.0,12.8,41,0.00,,,0.00,WUHU216HW,2013-03-24 19:29:00,
2013-03-24 15:34:00,47.5,25.5,29.71,North,0,0.0,8.1,42,0.00,,,0.00,WUHU216HW,2013-03-24 19:34:00,
2013-03-24 15:39:00,47.7,25.7,29.71,North,0,0.0,0.0,42,0.00,,,0.00,WUHU216HW,2013-03-24 19:39:00,
2013-03-24 15:44:00,48.1,24.8,29.71,North,0,0.0,0.0,40,0.00,,,0.00,WUHU216HW,2013-03-24 19:44:00,
2013-03-24 15:49:00,47.9,25.2,29.71,North,0,0.0,0.0,41,0.00,,,0.00,WUHU216HW,2013-03-24 19:49:00,
2013-03-24 15:54:00,48.1,25.4,29.71,North,0,0.0,0.0,41,0.00,,,0.00,WUHU216HW,2013-03-24 19:54:00,
2013-03-24 15:59:00,47.9,24.0,29.71,North,0,0.0,0.0,39,0.00,,,0.00,WUHU216HW,2013-03-24 19:59:00,
2013-03-24 16:04:00,47.5,24.4,29.70,North,0,0.0,0.0,40,0.00,,,0.00,WUHU216HW,2013-03-24 20:04:00,
2013-03-24 16:09:00,47.3,24.2,29.70,North,0,0.0,0.0,40,0.00,,,0.00,WUHU216HW,2013-03-24 20:09:00,
2013-03-24 16:14:00,47.2,24.6,29.70,North,0,0.0,0.0,41,0.00,,,0.00,WUHU216HW,2013-03-24 20:14:00,
2013-03-24 16:19:00,47.2,24.6,29.70,North,0,0.0,0.0,41,0.00,,,0.00,WUHU216HW,2013-03-24 20:19:00,
2013-03-24 16:24:00,47.2,24.6,29.70,North,0,0.0,0.0,41,0.00,,,0.00,WUHU216HW,2013-03-24 20:24:00,
2013-03-24 16:29:00,46.8,23.8,29.70,North,0,0.0,0.0,40,0.00,,,0.00,WUHU216HW,2013-03-24 20:29:00,
2013-03-24 16:34:00,46.4,23.9,29.70,North,0,0.0,0.0,41,0.00,,,0.00,WUHU216HW,2013-03-24 20:34:00,
2013-03-24 16:39:00,46.3,24.3,29.70,North,0,0.0,0.0,42,0.00,,,0.00,WUHU216HW,2013-03-24 20:39:00,
2013-03-24 16:44:00,46.6,24.1,29.70,North,0,0.0,0.0,41,0.00,,,0.00,WUHU216HW,2013-03-24 20:44:00,
2013-03-24 16:49:00,47.0,23.9,29.69,NW,315,6.9,6.9,40,0.00,,,0.00,WUHU216HW,2013-03-24 20:49:00,
2013-03-24 16:54:00,47.0,24.4,29.70,North,0,0.0,6.9,41,0.00,,,0.00,WUHU216HW,2013-03-24 20:54:00,
2013-03-24 16:59:00,47.2,24.6,29.70,North,0,0.0,6.9,41,0.00,,,0.00,WUHU216HW,2013-03-24 20:59:00,
2013-03-24 17:04:00,47.2,24.0,29.69,North,0,0.0,0.0,40,0.00,,,0.00,WUHU216HW,2013-03-24 21:04:00,
2013-03-24 17:09:00,47.2,24.0,29.70,North,0,0.0,0.0,40,0.00,,,0.00,WUHU216HW,2013-03-24 21:09:00,
2013-03-24 17:14:00,46.8,23.8,29.69,North,0,0.0,0.0,40,0.00,,,0.00,WUHU216HW,2013-03-24 21:14:00,
2013-03-24 17:19:00,47.0,23.9,29.70,North,0,0.0,0.0,40,0.00,,,0.00,WUHU216HW,2013-03-24 21:19:00,
2013-03-24 17:24:00,46.8,24.3,29.69,North,0,0.0,0.0,41,0.00,,,0.00,WUHU216HW,2013-03-24 21:24:00,
2013-03-24 17:29:00,46.6,24.1,29.69,North,0,0.0,0.0,41,0.00,,,0.00,WUHU216HW,2013-03-24 21:29:00,
2013-03-24 17:34:00,46.4,24.5,29.70,North,0,0.0,0.0,42,0.00,,,0.00,WUHU216HW,2013-03-24 21:34:00,
2013-03-24 17:38:00,46.4,23.9,29.70,North,0,0.0,0.0,41,0.00,,,0.00,WUHU216HW,2013-03-24 21:38:00,
2013-03-24 17:43:00,46.1,24.1,29.70,North,0,0.0,0.0,42,0.00,,,0.00,WUHU216HW,2013-03-24 21:43:00,
2013-03-24 17:48:00,45.7,23.9,29.70,North,0,0.0,0.0,42,0.00,,,0.00,WUHU216HW,2013-03-24 21:48:00,
2013-03-24 17:53:00,45.4,23.5,29.70,North,0,0.0,0.0,42,0.00,,,0.00,WUHU216HW,2013-03-24 21:53:00,
2013-03-24 17:58:00,45.0,23.8,29.70,North,0,0.0,0.0,43,0.00,,,0.00,WUHU216HW,2013-03-24 21:58:00,
2013-03-24 18:03:00,44.8,23.6,29.71,North,0,0.0,0.0,43,0.00,,,0.00,WUHU216HW,2013-03-24 22:03:00,
2013-03-24 18:08:00,44.6,23.4,29.71,South,180,1.1,1.1,43,0.00,,,0.00,WUHU216HW,2013-03-24 22:08:00,
2013-03-24 18:13:00,44.5,23.8,29.71,NNW,338,2.5,2.5,44,0.00,,,0.00,WUHU216HW,2013-03-24 22:13:00,
2013-03-24 18:18:00,44.5,23.8,29.71,WNW,293,2.5,2.5,44,0.00,,,0.00,WUHU216HW,2013-03-24 22:18:00,
2013-03-24 18:23:00,44.6,23.9,29.71,North,0,0.0,2.5,44,0.00,,,0.00,WUHU216HW,2013-03-24 22:23:00,
2013-03-24 18:28:00,44.6,23.9,29.71,North,0,0.0,2.5,44,0.00,,,0.00,WUHU216HW,2013-03-24 22:28:00,
2013-03-24 18:33:00,44.8,24.1,29.71,North,0,0.0,0.0,44,0.00,,,0.00,WUHU216HW,2013-03-24 22:33:00,
2013-03-24 18:38:00,44.8,24.1,29.71,North,0,0.0,0.0,44,0.00,,,0.00,WUHU216HW,2013-03-24 22:38:00,
2013-03-24 18:43:00,44.6,24.5,29.71,North,0,0.0,0.0,45,0.00,,,0.00,WUHU216HW,2013-03-24 22:43:00,
2013-03-24 18:48:00,44.3,24.1,29.72,North,0,0.0,0.0,45,0.00,,,0.00,WUHU216HW,2013-03-24 22:48:00,
2013-03-24 18:53:00,43.9,24.4,29.72,North,0,0.0,0.0,46,0.00,,,0.00,WUHU216HW,2013-03-24 22:53:00,
2013-03-24 18:58:00,43.6,26.2,29.72,North,0,0.0,0.0,50,0.00,,,0.00,WUHU216HW,2013-03-24 22:58:00,
2013-03-24 19:03:00,42.3,25.5,29.72,North,0,0.0,0.0,51,0.00,,,0.00,WUHU216HW,2013-03-24 23:03:00,
2013-03-24 19:08:00,41.2,24.4,29.73,North,0,0.0,0.0,51,0.00,,,0.00,WUHU216HW,2013-03-24 23:08:00,
2013-03-24 19:13:00,40.5,23.8,29.73,North,0,0.0,0.0,51,0.00,,,0.00,WUHU216HW,2013-03-24 23:13:00,
2013-03-24 19:18:00,40.0,22.8,29.73,North,0,0.0,0.0,50,0.00,,,0.00,WUHU216HW,2013-03-24 23:18:00,
2013-03-24 19:23:00,39.6,22.9,29.73,North,0,0.0,0.0,51,0.00,,,0.00,WUHU216HW,2013-03-24 23:23:00,
2013-03-24 19:28:00,39.4,22.8,29.73,North,0,0.0,0.0,51,0.00,,,0.00,WUHU216HW,2013-03-24 23:28:00,
2013-03-24 19:33:00,39.2,22.6,29.73,North,0,0.0,0.0,51,0.00,,,0.00,WUHU216HW,2013-03-24 23:33:00,
2013-03-24 19:38:00,38.9,21.8,29.74,North,0,0.0,0.0,50,0.00,,,0.00,WUHU216HW,2013-03-24 23:38:00,
2013-03-24 19:43:00,38.9,22.2,29.74,North,0,0.0,0.0,51,0.00,,,0.00,WUHU216HW,2013-03-24 23:43:00,
2013-03-24 19:48:00,39.1,22.4,29.74,North,0,0.0,0.0,51,0.00,,,0.00,WUHU216HW,2013-03-24 23:48:00,
2013-03-24 19:53:00,38.9,22.2,29.74,North,0,0.0,0.0,51,0.00,,,0.00,WUHU216HW,2013-03-24 23:53:00,
2013-03-24 19:58:00,38.7,22.1,29.74,North,0,0.0,0.0,51,0.00,,,0.00,WUHU216HW,2013-03-24 23:58:00,
2013-03-24 20:03:00,38.5,22.0,29.74,North,0,0.0,0.0,51,0.00,,,0.00,WUHU216HW,2013-03-25 00:03:00,
2013-03-24 20:08:00,38.2,21.6,29.74,North,0,0.0,0.0,51,0.00,,,0.00,WUHU216HW,2013-03-25 00:08:00,
2013-03-24 20:13:00,38.0,21.9,29.74,North,0,0.0,0.0,52,0.00,,,0.00,WUHU216HW,2013-03-25 00:13:00,
2013-03-24 20:18:00,37.6,21.2,29.74,North,0,0.0,0.0,51,0.00,,,0.00,WUHU216HW,2013-03-25 00:18:00,
2013-03-24 20:23:00,37.1,20.6,29.74,North,0,0.0,0.0,51,0.00,,,0.00,WUHU216HW,2013-03-25 00:23:00,
2013-03-24 20:28:00,36.9,19.5,29.74,North,0,0.0,0.0,49,0.00,,,0.00,WUHU216HW,2013-03-25 00:28:00,
2013-03-24 20:33:00,36.7,19.9,29.74,North,0,0.0,0.0,50,0.00,,,0.00,WUHU216HW,2013-03-25 00:33:00,
2013-03-24 20:38:00,36.4,19.0,29.74,North,0,0.0,0.0,49,0.00,,,0.00,WUHU216HW,2013-03-25 00:38:00,
2013-03-24 20:43:00,36.2,18.9,29.74,North,0,0.0,0.0,49,0.00,,,0.00,WUHU216HW,2013-03-25 00:43:00,
2013-03-24 20:48:00,35.8,14.9,29.74,North,0,0.0,0.0,42,0.00,,,0.00,WUHU216HW,2013-03-25 00:48:00,
2013-03-24 20:53:00,35.6,13.1,29.74,North,0,0.0,0.0,39,0.00,,,0.00,WUHU216HW,2013-03-25 00:53:00,
2013-03-24 20:58:00,35.6,15.2,29.74,North,0,0.0,0.0,43,0.00,,,0.00,WUHU216HW,2013-03-25 00:58:00,
2013-03-24 21:03:00,35.6,15.2,29.74,North,0,0.0,0.0,43,0.00,,,0.00,WUHU216HW,2013-03-25 01:03:00,
2013-03-24 21:08:00,35.6,15.2,29.74,North,0,0.0,0.0,43,0.00,,,0.00,WUHU216HW,2013-03-25 01:08:00,
2013-03-24 21:13:00,35.6,15.8,29.75,North,0,0.0,0.0,44,0.00,,,0.00,WUHU216HW,2013-03-25 01:13:00,
2013-03-24 21:18:00,35.3,15.9,29.75,North,0,0.0,0.0,45,0.00,,,0.00,WUHU216HW,2013-03-25 01:18:00,
2013-03-24 21:23:00,35.1,14.8,29.75,North,0,0.0,0.0,43,0.00,,,0.00,WUHU216HW,2013-03-25 01:23:00,
2013-03-24 21:28:00,34.9,15.1,29.76,North,0,0.0,0.0,44,0.00,,,0.00,WUHU216HW,2013-03-25 01:28:00,
2013-03-24 21:33:00,34.6,14.8,29.76,North,0,0.0,0.0,44,0.00,,,0.00,WUHU216HW,2013-03-25 01:33:00,
2013-03-24 21:38:00,34.4,13.6,29.76,North,0,0.0,0.0,42,0.00,,,0.00,WUHU216HW,2013-03-25 01:38:00,
2013-03-24 21:43:00,34.2,14.0,29.76,North,0,0.0,0.0,43,0.00,,,0.00,WUHU216HW,2013-03-25 01:43:00,
2013-03-24 21:48:00,34.0,11.6,29.76,North,0,0.0,0.0,39,0.00,,,0.00,WUHU216HW,2013-03-25 01:48:00,
2013-03-24 21:53:00,33.8,12.6,29.76,North,0,0.0,0.0,41,0.00,,,0.00,WUHU216HW,2013-03-25 01:53:00,
2013-03-24 21:58:00,33.5,11.7,29.76,North,0,0.0,0.0,40,0.00,,,0.00,WUHU216HW,2013-03-25 01:58:00,
2013-03-24 22:03:00,33.5,9.8,29.76,North,0,0.0,0.0,37,0.00,,,0.00,WUHU216HW,2013-03-25 02:03:00,
2013-03-24 22:08:00,33.1,10.8,29.76,North,0,0.0,0.0,39,0.00,,,0.00,WUHU216HW,2013-03-25 02:08:00,
2013-03-24 22:13:00,32.8,11.1,29.76,North,0,0.0,0.0,40,0.00,,,0.00,WUHU216HW,2013-03-25 02:13:00,
2013-03-24 22:18:00,32.4,10.8,29.76,North,0,0.0,0.0,40,0.00,,,0.00,WUHU216HW,2013-03-25 02:18:00,
2013-03-24 22:23:00,32.0,9.8,29.76,North,0,0.0,0.0,39,0.00,,,0.00,WUHU216HW,2013-03-25 02:23:00,
2013-03-24 22:28:00,31.7,8.8,29.76,North,0,0.0,0.0,38,0.00,,,0.00,WUHU216HW,2013-03-25 02:28:00,
2013-03-24 22:33:00,31.3,8.6,29.76,North,0,0.0,0.0,38,0.00,,,0.00,WUHU216HW,2013-03-25 02:33:00,
2013-03-24 22:38:00,30.8,8.0,29.76,North,0,0.0,0.0,38,0.00,,,0.00,WUHU216HW,2013-03-25 02:38:00,
2013-03-24 22:43:00,30.4,7.1,29.76,North,0,0.0,0.0,37,0.00,,,0.00,WUHU216HW,2013-03-25 02:43:00,
2013-03-24 22:48:00,29.9,6.6,29.75,North,0,0.0,0.0,37,0.00,,,0.00,WUHU216HW,2013-03-25 02:48:00,
2013-03-24 22:53:00,29.5,6.3,29.75,North,0,0.0,0.0,37,0.00,,,0.00,WUHU216HW,2013-03-25 02:53:00,
2013-03-24 22:58:00,29.5,2.5,29.75,North,0,0.0,0.0,31,0.00,,,0.00,WUHU216HW,2013-03-25 02:58:00,
2013-03-24 23:03:00,29.9,-10.5,29.75,North,0,0.0,0.0,17,0.00,,,0.00,WUHU216HW,2013-03-25 03:03:00,
2013-03-24 23:08:00,30.1,-6.3,29.75,North,0,0.0,0.0,20,0.00,,,0.00,WUHU216HW,2013-03-25 03:08:00,
2013-03-24 23:13:00,30.2,-19.8,29.74,North,0,0.0,0.0,9,0.00,,,0.00,WUHU216HW,2013-03-25 03:13:00,
2013-03-24 23:18:00,29.9,-10.5,29.74,North,0,0.0,0.0,17,0.00,,,0.00,WUHU216HW,2013-03-25 03:18:00,
2013-03-24 23:23:00,29.7,-7.9,29.74,North,0,0.0,0.0,19,0.00,,,0.00,WUHU216HW,2013-03-25 03:23:00,
2013-03-24 23:28:00,29.3,-6.8,29.74,North,0,0.0,0.0,20,0.00,,,0.00,WUHU216HW,2013-03-25 03:28:00,
2013-03-24 23:33:00,29.2,-7.0,29.74,North,0,0.0,0.0,20,0.00,,,0.00,WUHU216HW,2013-03-25 03:33:00,
2013-03-24 23:38:00,29.2,-7.0,29.74,North,0,0.0,0.0,20,0.00,,,0.00,WUHU216HW,2013-03-25 03:38:00,
2013-03-24 23:43:00,28.8,-6.4,29.74,North,0,0.0,0.0,21,0.00,,,0.00,WUHU216HW,2013-03-25 03:43:00,
2013-03-24 23:48:00,28.4,-7.6,29.74,North,0,0.0,0.0,20,0.00,,,0.00,WUHU216HW,2013-03-25 03:48:00,
2013-03-24 23:53:00,28.4,-10.2,29.74,North,0,0.0,0.0,18,0.00,,,0.00,WUHU216HW,2013-03-25 03:53:00,
2013-03-24 23:58:00,28.3,-10.4,29.74,North,0,0.0,0.0,18,0.00,,,0.00,WUHU216HW,2013-03-25 03:58:00,